createdAt,value
2018-10-19T00:02:16.963Z,102309.61
2018-10-19T00:04:44.628Z,102311.64
2018-10-19T00:07:13.256Z,102304.75
2018-10-19T00:09:40.919Z,102304.99
2018-10-19T00:12:09.712Z,102302.92
2018-10-19T00:14:37.404Z,102300.25
2018-10-19T00:17:05.832Z,102299.77
2018-10-19T00:19:33.530Z,102294.78
2018-10-19T00:22:01.148Z,102297.22
2018-10-19T00:24:29.042Z,102294.53
2018-10-19T00:26:57.143Z,102286.27
2018-10-19T00:29:25.017Z,102288.70
2018-10-19T00:31:55.419Z,102286.79
2018-10-19T00:34:23.089Z,102291.65
2018-10-19T00:36:50.965Z,102285.20
2018-10-19T00:39:18.671Z,102285.81
2018-10-19T00:41:46.267Z,102289.55
2018-10-19T00:44:14.234Z,102289.92
2018-10-19T00:46:42.322Z,102288.22
2018-10-19T00:49:09.857Z,102291.27
2018-10-19T00:51:37.919Z,102293.11
2018-10-19T00:54:06.072Z,102295.28
2018-10-19T00:56:34.278Z,102295.54
2018-10-19T00:59:02.193Z,102293.83
2018-10-19T01:01:29.760Z,102293.83
2018-10-19T01:03:57.651Z,102295.77
2018-10-19T01:06:26.240Z,102294.77
2018-10-19T01:09:04.920Z,102295.50
2018-10-19T01:11:33.916Z,102293.83
2018-10-19T01:14:01.757Z,102292.57
2018-10-19T01:16:30.220Z,102287.36
2018-10-19T01:18:57.853Z,102283.84
2018-10-19T01:21:25.500Z,102281.03
2018-10-19T01:23:53.558Z,102288.44
2018-10-19T01:26:22.725Z,102284.07
2018-10-19T01:28:50.694Z,102278.73
2018-10-19T01:31:18.880Z,102283.72
2018-10-19T01:33:46.948Z,102291.13
2018-10-19T01:36:15.912Z,102285.54
2018-10-19T01:38:44.946Z,102283.93
2018-10-19T01:41:12.791Z,102291.00
2018-10-19T01:43:41.699Z,102287.83
2018-10-19T01:46:09.448Z,102289.78
2018-10-19T01:48:37.311Z,102296.57
2018-10-19T01:51:06.512Z,102300.36
2018-10-19T01:53:34.772Z,102298.65
2018-10-19T01:56:03.364Z,102292.43
2018-10-19T01:58:31.528Z,102291.71
2018-10-19T02:01:01.659Z,102291.70
2018-10-19T02:03:30.561Z,102291.25
2018-10-19T02:05:59.269Z,102289.42
2018-10-19T02:08:27.283Z,102286.01
2018-10-19T02:10:55.287Z,102287.95
2018-10-19T02:13:23.413Z,102289.09
2018-10-19T02:15:51.330Z,102281.68
2018-10-19T02:18:19.087Z,102286.42
2018-10-19T02:20:46.945Z,102282.05
2018-10-19T02:23:15.237Z,102282.97
2018-10-19T02:25:42.950Z,102283.09
2018-10-19T02:28:10.921Z,102285.78
2018-10-19T02:30:42.759Z,102283.59
2018-10-19T02:33:10.982Z,102284.55
2018-10-19T02:35:39.796Z,102287.42
2018-10-19T02:38:07.477Z,102282.94
2018-10-19T02:40:35.456Z,102282.21
2018-10-19T02:43:03.368Z,102286.11
2018-10-19T02:45:33.767Z,102287.92
2018-10-19T02:48:02.279Z,102288.06
2018-10-19T02:50:30.102Z,102292.93
2018-10-19T02:52:57.923Z,102289.17
2018-10-19T02:55:25.628Z,102286.51
2018-10-19T02:57:53.300Z,102288.81
2018-10-19T03:00:21.235Z,102287.48
2018-10-19T03:02:49.071Z,102287.22
2018-10-19T03:05:17.012Z,102296.82
2018-10-19T03:07:46.903Z,102286.02
2018-10-19T03:10:14.654Z,102290.64
2018-10-19T03:12:42.999Z,102290.14
2018-10-19T03:15:10.899Z,102291.81
2018-10-19T03:17:38.469Z,102291.08
2018-10-19T03:20:07.170Z,102293.48
2018-10-19T03:22:35.585Z,102282.72
2018-10-19T03:25:04.589Z,102291.20
2018-10-19T03:27:33.943Z,102283.43
2018-10-19T03:30:01.714Z,102277.37
2018-10-19T03:32:29.574Z,102276.88
2018-10-19T03:34:57.605Z,102275.05
2018-10-19T03:37:25.925Z,102276.17
2018-10-19T03:39:53.691Z,102277.75
2018-10-19T03:42:21.968Z,102275.73
2018-10-19T03:44:50.754Z,102276.93
2018-10-19T03:47:18.907Z,102273.53
2018-10-19T03:49:46.995Z,102278.92
2018-10-19T03:52:15.577Z,102271.86
2018-10-19T03:54:43.577Z,102279.47
2018-10-19T03:57:12.132Z,102278.09
2018-10-19T03:59:41.009Z,102274.09
2018-10-19T04:02:08.988Z,102270.28
2018-10-19T04:04:36.887Z,102277.45
2018-10-19T04:07:06.262Z,102274.59
2018-10-19T04:09:34.749Z,102273.59
2018-10-19T04:12:02.469Z,102273.38
2018-10-19T04:14:31.428Z,102282.47
2018-10-19T04:17:00.215Z,102279.80
2018-10-19T04:19:28.092Z,102283.59
2018-10-19T04:21:56.358Z,102285.47
2018-10-19T04:24:24.383Z,102277.55
2018-10-19T04:26:52.594Z,102280.78
2018-10-19T04:29:20.737Z,102284.09
2018-10-19T04:31:48.862Z,102290.42
2018-10-19T04:34:17.212Z,102290.75
2018-10-19T04:36:45.801Z,102283.20
2018-10-19T04:39:14.566Z,102278.63
2018-10-19T04:41:42.381Z,102283.06
2018-10-19T04:44:10.233Z,102274.34
2018-10-19T04:46:38.941Z,102286.02
2018-10-19T04:49:07.184Z,102278.89
2018-10-19T04:51:35.320Z,102283.80
2018-10-19T04:54:04.396Z,102281.87
2018-10-19T04:56:32.930Z,102281.50
2018-10-19T04:59:01.518Z,102276.19
2018-10-19T05:01:29.332Z,102279.58
2018-10-19T05:03:57.661Z,102282.30
2018-10-19T05:09:12.525Z,102282.83
2018-10-19T05:11:41.982Z,102282.78
2018-10-19T05:14:12.171Z,102286.49
2018-10-19T05:16:41.401Z,102284.23
2018-10-19T05:19:10.216Z,102283.49
2018-10-19T05:21:38.835Z,102281.61
2018-10-19T05:24:07.329Z,102283.15
2018-10-19T05:29:17.187Z,102283.55
2018-10-19T05:31:44.936Z,102289.11
2018-10-19T05:34:12.910Z,102290.79
2018-10-19T05:36:40.963Z,102286.78
2018-10-19T05:39:10.702Z,102285.64
2018-10-19T05:41:38.687Z,102285.05
2018-10-19T05:44:07.436Z,102286.53
2018-10-19T05:46:35.251Z,102288.41
2018-10-19T05:49:03.282Z,102285.78
2018-10-19T05:51:31.698Z,102289.41
2018-10-19T05:54:05.535Z,102285.07
2018-10-19T05:56:33.616Z,102282.01
2018-10-19T05:59:01.941Z,102281.11
2018-10-19T06:01:30.674Z,102283.69
2018-10-19T06:03:58.724Z,102278.64
2018-10-19T06:06:26.729Z,102278.20
2018-10-19T06:08:56.842Z,102273.47
2018-10-19T06:11:25.175Z,102284.93
2018-10-19T06:13:53.770Z,102280.95
2018-10-19T06:16:21.751Z,102284.88
2018-10-19T06:21:52.033Z,102288.72
2018-10-19T06:24:24.085Z,102284.59
2018-10-19T06:26:53.883Z,102287.83
2018-10-19T06:32:33.684Z,102297.32
2018-10-19T06:35:02.864Z,102299.50
2018-10-19T06:37:30.981Z,102293.00
2018-10-19T06:39:58.950Z,102301.80
2018-10-19T06:42:26.857Z,102300.30
2018-10-19T06:44:55.328Z,102305.32
2018-10-19T06:47:23.585Z,102308.74
2018-10-19T06:49:51.708Z,102305.11
2018-10-19T06:52:19.683Z,102301.33
2018-10-19T06:54:47.453Z,102305.11
2018-10-19T06:57:15.473Z,102306.27
2018-10-19T06:59:43.204Z,102303.72
2018-10-19T07:02:11.228Z,102307.45
2018-10-19T07:04:39.174Z,102315.23
2018-10-19T07:07:07.075Z,102306.48
2018-10-19T07:09:35.172Z,102303.97
2018-10-19T07:12:02.932Z,102302.19
2018-10-19T07:14:30.444Z,102303.50
2018-10-19T07:16:58.354Z,102302.17
2018-10-19T07:19:26.005Z,102302.05
2018-10-19T07:21:53.541Z,102305.94
2018-10-19T07:24:21.378Z,102308.17
2018-10-19T07:26:50.300Z,102307.55
2018-10-19T07:29:18.057Z,102302.80
2018-10-19T07:31:45.727Z,102309.73
2018-10-19T07:34:13.429Z,102306.71
2018-10-19T07:36:41.033Z,102318.14
2018-10-19T07:39:09.233Z,102315.69
2018-10-19T07:41:37.194Z,102313.77
2018-10-19T07:44:05.421Z,102315.81
2018-10-19T07:46:33.165Z,102314.84
2018-10-19T07:49:00.646Z,102317.02
2018-10-19T07:51:28.362Z,102319.09
2018-10-19T07:53:55.967Z,102316.17
2018-10-19T07:56:23.587Z,102315.69
2018-10-19T07:58:51.143Z,102324.64
2018-10-19T08:01:18.932Z,102325.27
2018-10-19T08:03:46.666Z,102318.50
2018-10-19T08:06:14.274Z,102320.20
